AirNav   Free Bose QuietComfort 20
 
 1000 users online  

41MI Sturgis Hospital Heliport
Stugis, Michigan, USA

GOING TO STUGIS?


FAA INFORMATION EFFECTIVE 05 DECEMBER 2019

Location

FAA Identifier: 41MI
Lat/Long: 41-47-43.1100N 085-24-23.6400W
41-47.718500N 085-24.394000W
41.7953083,-85.4065667
(estimated)
Elevation: 921 ft. / 281 m (estimated)
From city: 1 mile SE of STUGIS, MI
Time zone: UTC -5 (UTC -4 during Daylight Saving Time)
Zip code: 49091

Heliport Operations

Heliport use: Private use. Permission required prior to landing
Activation date: 11/2017
Control tower: no
ARTCC: CHICAGO CENTER
FSS: LANSING FLIGHT SERVICE STATION
Attendance: 
Segmented circle: no

Heliport Communications

WX AWOS-3 at IRS (1.8 nm NW): 121.325 (269-659-8715)
WX AWOS-3 at HAI (13 nm NW): 119.975 (269-273-6705)
WX AWOS-3 at ANQ (17 nm SE): 118.175 (260-668-5630)
WX AWOS-3 at OEB (18 nm NE): 118.125 (517-279-1810)

Nearby radio navigation aids

VOR radial/distance  VOR name  Freq  Var
AZOr167/27.3KALAMAZOO VOR/DME109.0001W
GSHr060/32.2GOSHEN VORTAC113.7000E
LFDr246/32.8LITCHFIELD VOR/DME111.2005W
OLKr010/(33.2)WEBSTER LAKE VOR110.4003W
ELXr123/38.2KEELER VOR/DME116.6000E

 
NDB name  Hdg/Dist  Freq  Var  ID
STURGIS135/1.638204WIRS .. .-. ...

Heliport Services

Runway Information

Helipad H1

Dimensions: 50 x 50 ft. / 15 x 15 m
Surface: asphalt, in fair condition
Latitude: 41-47.718500N
Longitude: 085-24.394000W
Elevation: 921.0 ft.
Traffic pattern: leftleft

Heliport Ownership and Management from official FAA records

Ownership: Privately-owned
Owner: STURGIS HOSPITAL
916 MYRTLE AVE
STURGIS, MI 49091
Phone 269-651-7824
Manager: SHARI RANSBURGER
916 MYRTLE AVE
STURGIS, MI 49091
Phone 269-659-4403

Additional Remarks

FOR CD CTC CHICAGO ARTCC AT 630-906-8921.

Instrument Procedures

There are no published instrument procedures at 41MI.

Some nearby airports with instrument procedures:

KIRS - Kirsch Municipal Airport (2 nm NW)
KHAI - Three Rivers Municipal Dr Haines Airport (13 nm NW)
KANQ - Tri-State Steuben County Airport (17 nm SE)
KOEB - Branch County Memorial Airport (18 nm NE)
C62 - Kendallville Municipal Airport (20 nm S)
 
Loc | Ops | Rwys | IFR | FBO | Links
Com | Nav | Svcs | Stats | Notes
Aerial photo
No photo
 
Airport distance calculator
Flying to Sturgis Hospital Heliport? Find the distance to fly.

From to 41MI

Sunrise and sunset
Times for 13-Dec-2019
 Local
(UTC-5)
 Zulu
(UTC)
Morning civil twilight07:3012:30
Sunrise08:0213:02
Sunset17:1022:10
Evening civil twilight17:4222:42

Current date and time
Zulu (UTC)  13-Dec-2019 13:44:38
Local (UTC-5)  13-Dec-2019 08:44:38
 
METAR
KIRS 131336Z AUTO 20006KT 10SM OVC085 01/M02 A2999 RMK AO2 T00101025
KHAI 
13nm NW 
131336Z AUTO 18005KT 10SM OVC085 01/M03 A3000 RMK AO2 T00101028
KANQ 
17nm SE 
131315Z AUTO 17004KT 10SM OVC085 M02/M04 A3001 RMK AO2
KOEB 
18nm NE 
131335Z AUTO 16003KT 10SM OVC090 00/M02 A3000 RMK AO2 T00001023
TAF
KAZO 
27nm N 
131121Z 1312/1412 18008KT P6SM OVC080 FM132100 18004KT P6SM SCT080 BKN250 FM140600 00000KT 2SM BR OVC250 FM140900 34003KT 1/4SM FG VV002
KBTL 
32nm N 
131121Z 1312/1412 19009KT P6SM OVC080 FM131600 19005KT P6SM SCT070 BKN250 FM140600 00000KT 6SM BR OVC050 FM140900 35002KT 1SM BR OVC025
NOTAMs
Click for the latest NOTAMs
NOTAMs are issued by the DoD/FAA and will open in a separate window not controlled by AirNav.

 

 
 

Would you like to see your business listed on this page?

 If your business provides an interesting product or service to pilots, flight crews, aircraft, or users of the Sturgis Hospital Heliport, you should consider listing it here.  To start the listing process, click on the button below
 
Add a business
 

Other Pages about Sturgis Hospital Heliport

Update a link
 
Copyright © AirNav, LLC. All rights reserved. Privacy Policy  Contact